Latest Weather Observations for Fort Denison

IDN60801

Issued at 7:35 pm EST Friday 1 August 2014 (issued every 30 minutes, with the page automatically refreshed every 10 minutes)

About weather observations | Map of weather stations | Latest weather observations for NSW | Other Formats
Station Details ID: 066022 Name: FORT DENISON Lat: -33.86 Lon: 151.23 Height: 5.0 m
Data from the previous 72 hours. | See also: Recent months for locations in New South Wales
Date/Time
EST
Temp
°C
App
Temp
°C
Dew
Point
Rel
Hum
%
Delta-T
°C
Wind Press
QNH
hPa
Press
MSL
hPa
Rain
since 9 am
mm
Dir
 
Spd
km/h
Gust
km/h
Spd
kts
Gust
kts
01/07:30pm - - - - - W 43 69 23 37 - - -
01/07:25pm - - - - - W 43 61 23 33 - - -
01/07:00pm - - - - - W 44 59 24 32 - - -
01/06:43pm - - - - - W 39 57 21 31 - - -
01/06:30pm - - - - - W 37 54 20 29 - - -
01/06:20pm - - - - - W 30 48 16 26 - - -
01/06:00pm - - - - - WNW 24 33 13 18 - - -
01/05:30pm - - - - - W 28 35 15 19 - - -
01/05:02pm - - - - - W 33 54 18 29 - - -
01/05:00pm - - - - - W 33 46 18 25 - - -
01/04:34pm - - - - - W 35 54 19 29 - - -
01/04:30pm - - - - - W 33 50 18 27 - - -
01/04:23pm - - - - - W 28 48 15 26 - - -
01/04:00pm - - - - - W 30 43 16 23 - - -
01/03:30pm - - - - - WNW 30 48 16 26 - - -
01/03:28pm - - - - - WNW 30 48 16 26 - - -
01/03:00pm - - - - - W 28 39 15 21 - - -
01/02:32pm - - - - - WSW 28 46 15 25 - - -
01/02:30pm - - - - - W 30 46 16 25 - - -
01/02:18pm - - - - - W 30 50 16 27 - - -
01/02:00pm - - - - - W 35 43 19 23 - - -
01/01:30pm - - - - - WSW 24 43 13 23 - - -
01/01:09pm - - - - - W 32 54 17 29 - - -
01/01:00pm - - - - - WSW 24 39 13 21 - - -
01/12:30pm - - - - - W 30 48 16 26 - - -
01/12:24pm - - - - - W 28 48 15 26 - - -
01/12:00pm - - - - - W 35 44 19 24 - - -
01/11:59am - - - - - W 37 44 20 24 - - -
01/11:30am - - - - - WNW 30 52 16 28 - - -
01/11:13am - - - - - WNW 28 46 15 25 - - -
01/11:00am - - - - - WNW 26 41 14 22 - - -
01/10:30am - - - - - WNW 20 33 11 18 - - -
01/10:00am - - - - - WNW 22 32 12 17 - - -
01/09:30am - - - - - WNW 20 28 11 15 - - -
01/09:00am - - - - - WNW 22 35 12 19 - - -
01/08:30am - - - - - W 20 28 11 15 - - -
01/08:00am - - - - - W 20 26 11 14 - - -
01/07:30am - - - - - WNW 17 24 9 13 - - -
01/07:00am - - - - - E 4 9 2 5 - - -
01/06:30am - - - - - SE 9 17 5 9 - - -
01/06:00am - - - - - W 6 13 3 7 - - -
01/05:30am - - - - - NNW 13 19 7 10 - - -
01/05:00am - - - - - N 17 22 9 12 - - -
01/04:30am - - - - - N 19 28 10 15 - - -
01/04:00am - - - - - N 19 24 10 13 - - -
01/03:30am - - - - - N 17 20 9 11 - - -
01/03:00am - - - - - N 13 19 7 10 - - -
01/02:30am - - - - - N 20 24 11 13 - - -
01/02:00am - - - - - N 19 24 10 13 - - -
01/01:30am - - - - - N 20 30 11 16 - - -
01/01:00am - - - - - N 15 20 8 11 - - -
01/12:30am - - - - - N 15 20 8 11 - - -
01/12:00am - - - - - N 15 20 8 11 - - -
 
Date/Time
EST
Temp
°C
App
Temp
°C
Dew
Point
Rel
Hum
%
Delta-T
°C
Wind Press
QNH
hPa
Press
MSL
hPa
Rain
since 9 am
mm
Dir
 
Spd
km/h
Gust
km/h
Spd
kts
Gust
kts
31/11:30pm - - - - - NNE 7 9 4 5 - - -
31/11:00pm - - - - - N 13 24 7 13 - - -
31/10:30pm - - - - - N 22 28 12 15 - - -
31/10:00pm - - - - - NNW 22 28 12 15 - - -
31/09:30pm - - - - - NNW 17 30 9 16 - - -
31/09:00pm - - - - - NNW 24 35 13 19 - - -
31/08:30pm - - - - - NNW 26 44 14 24 - - -
31/08:00pm - - - - - NNW 26 39 14 21 - - -
31/07:30pm - - - - - NNW 28 39 15 21 - - -
31/07:00pm - - - - - NNW 26 39 14 21 - - -
31/06:30pm - - - - - NNW 26 35 14 19 - - -
31/06:00pm - - - - - NNW 19 26 10 14 - - -
31/05:30pm - - - - - NNW 28 41 15 22 - - -
31/05:00pm - - - - - NNW 24 33 13 18 - - -
31/04:31pm - - - - - NW 37 56 20 30 - - -
31/04:30pm - - - - - NW 39 56 21 30 - - -
31/04:00pm - - - - - NW 33 54 18 29 - - -
31/03:30pm - - - - - NNW 37 56 20 30 - - -
31/03:01pm - - - - - NW 35 56 19 30 - - -
31/03:00pm - - - - - NW 35 52 19 28 - - -
31/02:30pm - - - - - NNW 39 59 21 32 - - -
31/02:00pm - - - - - NNW 39 57 21 31 - - -
31/01:33pm - - - - - NNW 35 54 19 29 - - -
31/01:30pm - - - - - NNW 39 54 21 29 - - -
31/01:00pm - - - - - NW 37 57 20 31 - - -
31/12:33pm - - - - - NNW 28 46 15 25 - - -
31/12:30pm - - - - - NNW 26 43 14 23 - - -
31/12:00pm - - - - - NNW 24 37 13 20 - - -
31/11:46am - - - - - NNW 30 48 16 26 - - -
31/11:30am - - - - - NW 32 44 17 24 - - -
31/11:00am - - - - - NNW 28 41 15 22 - - -
31/10:30am - - - - - NNW 28 41 15 22 - - -
31/10:00am - - - - - NNW 24 33 13 18 - - -
31/09:30am - - - - - NNW 26 37 14 20 - - -
31/09:00am - - - - - NNW 24 32 13 17 - - -
31/08:30am - - - - - N 24 32 13 17 - - -
31/08:00am - - - - - NNW 22 30 12 16 - - -
31/07:30am - - - - - N 13 19 7 10 - - -
31/07:00am - - - - - NNW 13 19 7 10 - - -
31/06:30am - - - - - NW 6 11 3 6 - - -
31/06:00am - - - - - NW 7 13 4 7 - - -
31/05:30am - - - - - NW 6 11 3 6 - - -
31/05:00am - - - - - NW 7 13 4 7 - - -
31/04:30am - - - - - NNW 13 19 7 10 - - -
31/04:00am - - - - - NNW 22 28 12 15 - - -
31/03:30am - - - - - NNW 20 24 11 13 - - -
31/03:00am - - - - - NNW 22 28 12 15 - - -
31/02:30am - - - - - NNW 24 30 13 16 - - -
31/02:00am - - - - - NNW 24 32 13 17 - - -
31/01:30am - - - - - NNW 20 26 11 14 - - -
31/01:00am - - - - - NNW 20 26 11 14 - - -
31/12:30am - - - - - NNW 20 26 11 14 - - -
31/12:00am - - - - - NNW 24 30 13 16 - - -
 
Date/Time
EST
Temp
°C
App
Temp
°C
Dew
Point
Rel
Hum
%
Delta-T
°C
Wind Press
QNH
hPa
Press
MSL
hPa
Rain
since 9 am
mm
Dir
 
Spd
km/h
Gust
km/h
Spd
kts
Gust
kts
30/11:30pm - - - - - NNW 22 28 12 15 - - -
30/11:00pm - - - - - NNW 22 30 12 16 - - -
30/10:30pm - - - - - NNW 17 24 9 13 - - -
30/10:00pm - - - - - NNW 15 22 8 12 - - -
30/09:30pm - - - - - NW 11 17 6 9 - - -
30/09:00pm - - - - - WNW 6 9 3 5 - - -
30/08:30pm - - - - - WNW 7 11 4 6 - - -
30/08:00pm - - - - - NW 9 11 5 6 - - -
30/07:30pm - - - - - NW 15 22 8 12 - - -
30/07:00pm - - - - - WNW 15 20 8 11 - - -
30/06:30pm - - - - - W 19 24 10 13 - - -
30/06:00pm - - - - - WNW 17 24 9 13 - - -
30/05:30pm - - - - - WNW 19 28 10 15 - - -
30/05:00pm - - - - - WNW 20 30 11 16 - - -
30/04:30pm - - - - - NW 20 32 11 17 - - -
30/04:00pm - - - - - WNW 20 26 11 14 - - -
30/03:30pm - - - - - WNW 22 32 12 17 - - -
30/03:00pm - - - - - WNW 22 33 12 18 - - -
30/02:30pm - - - - - WNW 22 32 12 17 - - -
30/02:00pm - - - - - WNW 26 37 14 20 - - -
30/01:30pm - - - - - WNW 19 24 10 13 - - -
30/01:00pm - - - - - WNW 15 20 8 11 - - -
30/12:30pm - - - - - WNW 11 15 6 8 - - -
30/12:00pm - - - - - W 17 32 9 17 - - -
30/11:30am - - - - - W 15 20 8 11 - - -
30/11:00am - - - - - W 19 22 10 12 - - -
30/10:30am - - - - - W 13 19 7 10 - - -
30/10:00am - - - - - W 17 20 9 11 - - -
30/09:30am - - - - - W 4 7 2 4 - - -
30/09:00am - - - - - WNW 13 22 7 12 - - -
30/08:30am - - - - - WNW 20 33 11 18 - - -
30/08:00am - - - - - W 20 24 11 13 - - -
30/07:30am - - - - - W 13 20 7 11 - - -
30/07:00am - - - - - WNW 13 20 7 11 - - -
30/06:30am - - - - - NNW 6 9 3 5 - - -
30/06:00am - - - - - E 7 13 4 7 - - -
30/05:30am - - - - - N 2 4 1 2 - - -
30/05:00am - - - - - N 9 13 5 7 - - -
30/04:30am - - - - - W 9 13 5 7 - - -
30/04:00am - - - - - W 20 28 11 15 - - -
30/03:30am - - - - - WNW 20 26 11 14 - - -
30/03:00am - - - - - NW 11 15 6 8 - - -
30/02:30am - - - - - NW 11 15 6 8 - - -
30/02:00am - - - - - NW 13 19 7 10 - - -
30/01:30am - - - - - NNW 11 15 6 8 - - -
30/01:00am - - - - - NW 9 13 5 7 - - -
30/12:30am - - - - - NW 13 19 7 10 - - -
30/12:00am - - - - - NNW 20 24 11 13 - - -
 
Date/Time
EST
Temp
°C
App
Temp
°C
Dew
Point
Rel
Hum
%
Delta-T
°C
Wind Press
QNH
hPa
Press
MSL
hPa
Rain
since 9 am
mm
Dir
 
Spd
km/h
Gust
km/h
Spd
kts
Gust
kts
29/11:30pm - - - - - NNW 24 32 13 17 - - -
29/11:00pm - - - - - N 22 32 12 17 - - -
29/10:30pm - - - - - N 22 28 12 15 - - -
29/10:00pm - - - - - N 20 26 11 14 - - -
29/09:30pm - - - - - NNW 22 26 12 14 - - -
29/09:00pm - - - - - NNW 20 24 11 13 - - -
29/08:30pm - - - - - NNW 19 24 10 13 - - -
29/08:00pm - - - - - NNW 19 24 10 13 - - -

Other Formats:

Comma delimited format used in spreadsheet applications
http://www.bom.gov.au/fwo/IDN60801/IDN60801.94769.axf

JavaScript Object Notation format (JSON) in row-major order
http://www.bom.gov.au/fwo/IDN60801/IDN60801.94769.json